createdAt,value
2023-02-07T00:00:46.585Z,104064.84
2023-02-07T00:03:13.134Z,104057.41
2023-02-07T00:05:40.001Z,104067.31
2023-02-07T00:08:07.550Z,104072.03
2023-02-07T00:10:35.202Z,104061.13
2023-02-07T00:13:01.761Z,104070.22
2023-02-07T00:15:28.251Z,104069.38
2023-02-07T00:17:54.815Z,104072.06
2023-02-07T00:20:21.365Z,104060.13
2023-02-07T00:22:47.879Z,104060.31
2023-02-07T00:25:14.344Z,104060.75
2023-02-07T00:27:40.919Z,104057.66
2023-02-07T00:30:07.846Z,104043.44
2023-02-07T00:32:34.942Z,104062.41
2023-02-07T00:35:01.942Z,104056.88
2023-02-07T00:37:28.489Z,104058.50
2023-02-07T00:39:55.006Z,104062.63
2023-02-07T00:42:21.474Z,104065.28
2023-02-07T00:44:47.905Z,104059.50
2023-02-07T00:47:14.345Z,104063.66
2023-02-07T00:49:40.786Z,104059.53
2023-02-07T00:52:07.224Z,104061.38
2023-02-07T00:54:33.823Z,104066.31
2023-02-07T00:57:00.264Z,104066.50
2023-02-07T00:59:26.834Z,104071.47
2023-02-07T01:01:53.477Z,104065.91
2023-02-07T01:04:20.042Z,104072.13
2023-02-07T01:06:46.531Z,104065.94
2023-02-07T01:09:14.214Z,104067.38
2023-02-07T01:11:40.813Z,104062.19
2023-02-07T01:14:07.380Z,104066.50
2023-02-07T01:16:36.121Z,104068.59
2023-02-07T01:19:06.298Z,104063.00
2023-02-07T01:21:32.924Z,104059.72
2023-02-07T01:23:59.472Z,104067.16
2023-02-07T01:26:26.932Z,104067.59
2023-02-07T01:28:55.175Z,104070.25
2023-02-07T01:31:22.550Z,104079.72
2023-02-07T01:33:55.349Z,104071.91
2023-02-07T01:36:22.051Z,104075.00
2023-02-07T01:38:48.557Z,104071.28
2023-02-07T01:41:15.182Z,104064.50
2023-02-07T01:44:28.258Z,104075.81
2023-02-07T01:46:56.601Z,104078.72
2023-02-07T01:49:27.424Z,104076.25
2023-02-07T01:51:58.782Z,104074.59
2023-02-07T01:54:32.004Z,104078.09
2023-02-07T01:57:03.749Z,104079.94
2023-02-07T01:59:32.046Z,104074.81
2023-02-07T02:02:01.472Z,104078.53
2023-02-07T02:04:28.035Z,104072.34
2023-02-07T02:06:56.020Z,104081.81
2023-02-07T02:09:23.020Z,104084.25
2023-02-07T02:12:07.762Z,104072.53
2023-02-07T02:15:00.302Z,104066.38
2023-02-07T02:18:02.353Z,104067.00
2023-02-07T02:20:58.496Z,104077.47
2023-02-07T02:23:43.910Z,104077.47
2023-02-07T02:26:42.023Z,104079.34
2023-02-07T02:29:18.982Z,104074.16
2023-02-07T02:32:00.601Z,104070.47
2023-02-07T02:34:37.176Z,104080.13
2023-02-07T02:37:25.180Z,104075.19
2023-02-07T02:40:01.041Z,104069.81
2023-02-07T02:42:39.600Z,104073.34
2023-02-07T02:45:26.163Z,104076.19
2023-02-07T02:47:53.503Z,104081.75
2023-02-07T02:50:28.117Z,104067.56
2023-02-07T02:52:54.908Z,104077.44
2023-02-07T02:55:58.689Z,104065.72
2023-02-07T02:58:49.111Z,104065.72
2023-02-07T03:01:25.039Z,104066.31
2023-02-07T03:04:33.369Z,104068.97
2023-02-07T03:07:04.387Z,104084.44
2023-02-07T03:09:49.160Z,104079.66
2023-02-07T03:12:32.811Z,104074.97
2023-02-07T03:15:06.170Z,104072.88
2023-02-07T03:17:47.551Z,104072.84
2023-02-07T03:20:34.400Z,104068.53
2023-02-07T03:23:04.484Z,104067.13
2023-02-07T03:25:31.636Z,104059.13
2023-02-07T03:27:59.368Z,104062.59
2023-02-07T03:30:31.552Z,104064.44
2023-02-07T03:33:02.154Z,104058.28
2023-02-07T03:35:32.996Z,104055.63
2023-02-07T03:38:02.359Z,104058.25
2023-02-07T03:40:32.765Z,104048.81
2023-02-07T03:43:10.833Z,104044.84
2023-02-07T03:45:37.695Z,104052.44
2023-02-07T03:48:04.419Z,104052.22
2023-02-07T03:50:30.834Z,104057.00
2023-02-07T03:52:57.384Z,104052.50
2023-02-07T03:55:24.078Z,104061.31
2023-02-07T03:57:50.619Z,104055.34
2023-02-07T04:00:17.217Z,104051.00
2023-02-07T04:02:44.263Z,104062.50
2023-02-07T04:05:10.819Z,104062.69
2023-02-07T04:07:37.599Z,104043.53
2023-02-07T04:10:05.642Z,104039.59
2023-02-07T04:12:35.267Z,104038.38
2023-02-07T04:15:03.585Z,104047.06
2023-02-07T04:17:31.414Z,104039.28
2023-02-07T04:19:58.347Z,104040.31
2023-02-07T04:22:24.920Z,104044.41
2023-02-07T04:24:51.396Z,104046.81
2023-02-07T04:27:17.891Z,104042.66
2023-02-07T04:29:44.414Z,104055.78
2023-02-07T04:32:11.137Z,104049.00
2023-02-07T04:34:37.632Z,104040.81
2023-02-07T04:37:04.243Z,104039.78
2023-02-07T04:39:30.820Z,104034.25
2023-02-07T04:41:57.291Z,104044.34
2023-02-07T04:44:23.847Z,104040.66
2023-02-07T04:46:50.404Z,104030.38
2023-02-07T04:49:17.173Z,104038.84
2023-02-07T04:51:43.690Z,104034.31
2023-02-07T04:54:10.210Z,104041.06
2023-02-07T04:56:36.843Z,104027.09
2023-02-07T04:59:03.412Z,104023.22
2023-02-07T05:01:29.922Z,104029.19
2023-02-07T05:03:56.406Z,104042.91
2023-02-07T05:06:22.975Z,104033.03
2023-02-07T05:08:49.455Z,104029.38
2023-02-07T05:11:16.553Z,104033.69
2023-02-07T05:13:43.021Z,104033.69
2023-02-07T05:16:09.598Z,104043.56
2023-02-07T05:18:36.065Z,104037.59
2023-02-07T05:21:02.590Z,104040.28
2023-02-07T05:23:29.045Z,104051.13
2023-02-07T05:25:55.534Z,104049.44
2023-02-07T05:28:22.048Z,104045.13
2023-02-07T05:30:48.720Z,104050.88
2023-02-07T05:33:15.290Z,104061.13
2023-02-07T05:35:44.605Z,104065.47
2023-02-07T05:38:13.572Z,104070.84
2023-02-07T05:40:42.351Z,104069.13
2023-02-07T05:43:10.166Z,104069.25
2023-02-07T05:45:37.477Z,104075.59
2023-02-07T05:48:04.522Z,104071.13
2023-02-07T05:50:31.223Z,104070.53
2023-02-07T05:52:57.686Z,104071.56
2023-02-07T05:55:24.224Z,104083.94
2023-02-07T05:57:50.643Z,104082.47
2023-02-07T06:00:18.703Z,104085.72
2023-02-07T06:02:45.588Z,104097.53
2023-02-07T06:05:15.861Z,104094.16
2023-02-07T06:07:43.999Z,104101.22
2023-02-07T06:10:10.989Z,104089.25
2023-02-07T06:12:37.429Z,104098.22
2023-02-07T06:15:04.444Z,104091.97
2023-02-07T06:17:30.951Z,104087.66
2023-02-07T06:19:57.396Z,104088.03
2023-02-07T06:22:23.905Z,104092.47
2023-02-07T06:24:50.460Z,104089.78
2023-02-07T06:27:16.987Z,104084.25
2023-02-07T06:29:43.516Z,104093.00
2023-02-07T06:32:09.958Z,104085.63
2023-02-07T06:34:36.378Z,104086.78
2023-02-07T06:37:02.907Z,104080.44
2023-02-07T06:39:29.354Z,104093.50
2023-02-07T06:41:55.841Z,104089.53
2023-02-07T06:44:22.339Z,104086.84
2023-02-07T06:46:48.817Z,104092.44
2023-02-07T06:49:15.328Z,104091.66
2023-02-07T06:51:41.807Z,104090.47
2023-02-07T06:54:09.955Z,104091.44
2023-02-07T06:56:37.457Z,104092.06
2023-02-07T06:59:04.346Z,104095.69
2023-02-07T07:01:31.448Z,104102.78
2023-02-07T07:03:58.173Z,104104.91
2023-02-07T07:06:25.115Z,104100.81
2023-02-07T07:08:51.757Z,104105.19
2023-02-07T07:11:18.982Z,104113.19
2023-02-07T07:13:46.187Z,104116.59
2023-02-07T07:16:12.910Z,104114.94
2023-02-07T07:18:39.643Z,104107.44
2023-02-07T07:21:06.577Z,104098.16
2023-02-07T07:23:33.439Z,104104.00
2023-02-07T07:26:00.403Z,104120.31
2023-02-07T07:28:26.951Z,104109.94
2023-02-07T07:30:53.578Z,104115.25
2023-02-07T07:33:20.136Z,104114.47
2023-02-07T07:35:46.644Z,104113.97
2023-02-07T07:38:13.144Z,104105.53
2023-02-07T07:40:39.901Z,104112.91
2023-02-07T07:43:06.593Z,104111.56
2023-02-07T07:45:33.051Z,104107.53
2023-02-07T07:47:59.545Z,104109.53
2023-02-07T07:50:26.170Z,104102.31
2023-02-07T07:52:52.635Z,104097.91
2023-02-07T07:55:19.105Z,104101.03
2023-02-07T07:57:45.578Z,104099.84
2023-02-07T08:00:13.020Z,104101.53
2023-02-07T08:02:39.810Z,104104.00
2023-02-07T08:05:06.341Z,104099.94
2023-02-07T08:07:32.962Z,104097.31
2023-02-07T08:09:59.465Z,104100.22
2023-02-07T08:12:26.267Z,104105.59
2023-02-07T08:14:52.732Z,104098.38
2023-02-07T08:17:19.316Z,104110.16
2023-02-07T08:19:45.780Z,104104.81
2023-02-07T08:22:14.358Z,104109.97
2023-02-07T08:24:41.904Z,104100.31
2023-02-07T08:27:08.447Z,104109.56
2023-02-07T08:29:34.917Z,104106.91
2023-02-07T08:32:01.668Z,104116.00
2023-02-07T08:34:28.946Z,104116.41
2023-02-07T08:36:55.544Z,104120.53
2023-02-07T08:39:22.059Z,104116.59
2023-02-07T08:41:48.523Z,104115.97
2023-02-07T08:44:15.217Z,104106.88
2023-02-07T08:46:41.855Z,104110.41
2023-02-07T08:49:08.428Z,104110.84
2023-02-07T08:51:35.040Z,104111.25
2023-02-07T08:54:01.512Z,104109.38
2023-02-07T08:56:27.931Z,104113.50
2023-02-07T08:58:54.369Z,104120.91
2023-02-07T09:01:21.074Z,104122.56
2023-02-07T09:03:47.686Z,104121.13
2023-02-07T09:06:14.190Z,104117.84
2023-02-07T09:08:40.754Z,104115.97
2023-02-07T09:11:10.261Z,104114.31
2023-02-07T09:13:37.305Z,104114.13
2023-02-07T09:16:03.890Z,104112.50
2023-02-07T09:18:31.029Z,104105.47
2023-02-07T09:20:57.638Z,104106.28
2023-02-07T09:23:24.107Z,104110.78
2023-02-07T09:25:52.732Z,104110.72
2023-02-07T09:28:22.193Z,104106.63
2023-02-07T09:30:49.188Z,104096.28
2023-02-07T09:33:16.371Z,104104.91
2023-02-07T09:35:46.334Z,104097.91
2023-02-07T09:38:16.046Z,104100.59
2023-02-07T09:40:44.225Z,104096.28
2023-02-07T09:43:14.604Z,104089.44
2023-02-07T09:45:47.863Z,104089.63
2023-02-07T09:48:19.924Z,104096.63
2023-02-07T09:50:52.598Z,104093.66
2023-02-07T09:53:34.986Z,104097.66
2023-02-07T09:56:02.395Z,104103.13
2023-02-07T09:58:50.600Z,104105.81
2023-02-07T10:01:24.554Z,104103.69
2023-02-07T10:04:08.139Z,104101.81
2023-02-07T10:06:36.794Z,104103.66
2023-02-07T10:09:03.385Z,104107.09
2023-02-07T10:11:45.784Z,104111.59
2023-02-07T10:14:37.173Z,104104.34
2023-02-07T10:17:32.260Z,104101.34
2023-02-07T10:20:33.679Z,104110.78
2023-02-07T10:23:25.603Z,104114.53
2023-02-07T10:26:10.808Z,104121.06
2023-02-07T10:28:57.717Z,104121.69
2023-02-07T10:31:26.252Z,104120.00
2023-02-07T10:33:59.704Z,104118.31
2023-02-07T10:36:26.270Z,104106.91
2023-02-07T10:39:09.459Z,104119.00
2023-02-07T10:41:42.953Z,104125.13
2023-02-07T10:44:13.857Z,104119.59
2023-02-07T10:46:43.768Z,104119.38
2023-02-07T10:49:31.089Z,104127.22
2023-02-07T10:52:02.758Z,104126.09
2023-02-07T10:54:29.717Z,104125.13
2023-02-07T10:57:02.268Z,104123.09
2023-02-07T10:59:35.270Z,104119.72
2023-02-07T11:02:03.284Z,104116.22
2023-02-07T11:04:36.896Z,104112.16
2023-02-07T11:07:07.518Z,104135.00
2023-02-07T11:09:37.856Z,104129.41
2023-02-07T11:12:25.511Z,104128.25
2023-02-07T11:15:11.121Z,104116.44
2023-02-07T11:17:37.652Z,104109.22
2023-02-07T11:20:06.390Z,104116.53
2023-02-07T11:22:33.527Z,104107.94
2023-02-07T11:25:06.058Z,104115.56
2023-02-07T11:27:42.313Z,104111.88
2023-02-07T11:30:16.226Z,104107.06
2023-02-07T11:32:44.177Z,104106.69
2023-02-07T11:35:19.440Z,104108.66
2023-02-07T11:38:14.826Z,104105.13
2023-02-07T11:40:41.248Z,104096.75
2023-02-07T11:43:16.646Z,104095.41
2023-02-07T11:45:46.384Z,104088.94
2023-02-07T11:48:24.610Z,104087.44
2023-02-07T11:50:56.693Z,104088.47
2023-02-07T11:53:28.361Z,104074.78
2023-02-07T11:55:56.595Z,104075.59
2023-02-07T11:58:33.734Z,104075.47
2023-02-07T12:01:02.412Z,104079.81
2023-02-07T12:03:33.549Z,104075.13
2023-02-07T12:06:04.891Z,104075.34
2023-02-07T12:08:35.453Z,104073.16
2023-02-07T12:11:04.731Z,104059.75
2023-02-07T12:13:43.880Z,104059.25
2023-02-07T12:16:17.736Z,104060.25
2023-02-07T12:18:54.982Z,104059.69
2023-02-07T12:21:31.181Z,104054.75
2023-02-07T12:24:03.207Z,104047.53
2023-02-07T12:26:33.452Z,104052.41
2023-02-07T12:29:18.490Z,104054.34
2023-02-07T12:32:26.836Z,104048.97
2023-02-07T12:35:11.027Z,104045.16
2023-02-07T12:37:46.361Z,104050.22
2023-02-07T12:40:12.779Z,104046.97
2023-02-07T12:42:41.010Z,104059.88
2023-02-07T12:45:15.830Z,104062.25
2023-02-07T12:47:57.678Z,104053.31
2023-02-07T12:50:42.393Z,104060.00
2023-02-07T12:53:33.705Z,104061.56
2023-02-07T12:56:34.790Z,104054.03
2023-02-07T12:59:33.957Z,104056.91
2023-02-07T13:02:37.695Z,104062.00
2023-02-07T13:05:25.717Z,104053.78
2023-02-07T13:08:13.751Z,104050.66
2023-02-07T13:10:49.276Z,104046.03
2023-02-07T13:13:33.040Z,104043.16
2023-02-07T13:16:20.673Z,104044.63
2023-02-07T13:19:02.380Z,104042.72
2023-02-07T13:21:55.263Z,104035.94
2023-02-07T13:24:25.635Z,104033.28
2023-02-07T13:26:57.034Z,104027.69
2023-02-07T13:29:25.022Z,104032.47
2023-02-07T13:31:55.342Z,104035.16
2023-02-07T13:34:30.128Z,104025.91
2023-02-07T13:37:00.750Z,104017.00
2023-02-07T13:39:38.450Z,104021.03
2023-02-07T13:42:32.501Z,104020.09
2023-02-07T13:45:01.877Z,104030.47
2023-02-07T13:47:42.118Z,104025.78
2023-02-07T13:50:40.134Z,104031.41
2023-02-07T13:53:13.767Z,104017.78
2023-02-07T13:55:42.393Z,104013.59
2023-02-07T13:58:52.334Z,104018.75
2023-02-07T14:01:26.181Z,104020.91
2023-02-07T14:04:09.219Z,104015.44
2023-02-07T14:06:40.292Z,104026.50
2023-02-07T14:09:17.780Z,104025.66
2023-02-07T14:11:44.201Z,104024.16
2023-02-07T14:14:15.489Z,104016.25
2023-02-07T14:16:46.220Z,104017.19
2023-02-07T14:19:13.559Z,104012.03
2023-02-07T14:21:42.119Z,104006.56
2023-02-07T14:24:08.941Z,104015.59
2023-02-07T14:26:39.006Z,104008.25
2023-02-07T14:29:23.658Z,104010.25
2023-02-07T14:31:54.517Z,104006.75
2023-02-07T14:34:22.468Z,104003.91
2023-02-07T14:36:49.205Z,104004.22
2023-02-07T14:39:18.419Z,103999.03
2023-02-07T14:41:47.645Z,104012.91
2023-02-07T14:44:35.274Z,104004.22
2023-02-07T14:47:04.686Z,104007.44
2023-02-07T14:49:40.303Z,104003.84
2023-02-07T14:52:11.682Z,104000.63
2023-02-07T14:54:55.526Z,104004.00
2023-02-07T14:57:35.518Z,104000.66
2023-02-07T15:00:03.904Z,104002.38
2023-02-07T15:02:40.808Z,104005.44
2023-02-07T15:05:13.198Z,103998.28
2023-02-07T15:07:40.774Z,103996.72
2023-02-07T15:10:15.511Z,103996.72
2023-02-07T15:12:46.169Z,103998.34
2023-02-07T15:15:38.653Z,103993.28
2023-02-07T15:18:05.207Z,103999.75
2023-02-07T15:20:34.085Z,103997.88
2023-02-07T15:23:03.266Z,103980.63
2023-02-07T15:25:32.680Z,103988.03
2023-02-07T15:28:09.219Z,103993.16
2023-02-07T15:30:40.589Z,103994.75
2023-02-07T15:33:13.224Z,103987.41
2023-02-07T15:35:39.776Z,103989.88
2023-02-07T15:38:20.163Z,103987.84
2023-02-07T15:40:46.695Z,103990.50
2023-02-07T15:43:52.782Z,103995.50
2023-02-07T15:46:19.281Z,103996.88
2023-02-07T15:49:07.927Z,104001.72
2023-02-07T15:51:41.231Z,104001.34
2023-02-07T15:54:15.704Z,104002.50
2023-02-07T15:56:46.426Z,104006.78
2023-02-07T15:59:18.165Z,104000.59
2023-02-07T16:01:53.027Z,103993.38
2023-02-07T16:04:23.357Z,103985.91
2023-02-07T16:07:02.428Z,103992.69
2023-02-07T16:09:43.411Z,103996.91
2023-02-07T16:12:53.035Z,103994.66
2023-02-07T16:15:32.353Z,103988.25
2023-02-07T16:18:00.924Z,104004.41
2023-02-07T16:20:29.146Z,104009.84
2023-02-07T16:23:01.869Z,104002.41
2023-02-07T16:25:34.706Z,104007.13
2023-02-07T16:28:02.063Z,104006.53
2023-02-07T16:30:36.781Z,104010.56
2023-02-07T16:33:08.005Z,104017.84
2023-02-07T16:35:34.563Z,104019.97
2023-02-07T16:38:01.072Z,104013.66
2023-02-07T16:40:27.806Z,104011.38
2023-02-07T16:42:55.802Z,104020.69
2023-02-07T16:45:27.628Z,104020.28
2023-02-07T16:47:54.899Z,104028.19
2023-02-07T16:50:24.347Z,104023.81
2023-02-07T16:52:52.711Z,104020.59
2023-02-07T16:55:20.957Z,104023.94
2023-02-07T16:57:49.333Z,104034.03
2023-02-07T17:00:19.469Z,104028.69
2023-02-07T17:02:48.471Z,104034.44
2023-02-07T17:05:16.144Z,104023.91
2023-02-07T17:07:43.185Z,104033.88
2023-02-07T17:10:20.952Z,104021.81
2023-02-07T17:12:47.867Z,104029.91
2023-02-07T17:15:14.402Z,104026.94
2023-02-07T17:17:40.880Z,104036.19
2023-02-07T17:20:28.682Z,104033.47
2023-02-07T17:22:55.504Z,104027.38
2023-02-07T17:25:24.275Z,104029.25
2023-02-07T17:27:51.023Z,104025.97
2023-02-07T17:30:21.160Z,104028.78
2023-02-07T17:32:47.843Z,104020.41
2023-02-07T17:35:14.991Z,104031.81
2023-02-07T17:37:42.275Z,104038.25
2023-02-07T17:40:23.450Z,104039.78
2023-02-07T17:42:50.036Z,104022.84
2023-02-07T17:45:16.916Z,104041.34
2023-02-07T17:47:43.458Z,104035.16
2023-02-07T17:50:17.929Z,104035.59
2023-02-07T17:52:44.584Z,104037.09
2023-02-07T17:55:11.148Z,104026.41
2023-02-07T17:57:37.835Z,104037.88
2023-02-07T18:00:05.264Z,104041.78
2023-02-07T18:02:33.358Z,104054.66
2023-02-07T18:04:59.940Z,104045.28
2023-02-07T18:07:28.025Z,104045.91
2023-02-07T18:09:54.497Z,104044.03
2023-02-07T18:12:20.965Z,104046.50
2023-02-07T18:14:47.469Z,104054.72
2023-02-07T18:17:14.102Z,104055.38
2023-02-07T18:19:40.590Z,104052.75
2023-02-07T18:22:07.145Z,104049.41
2023-02-07T18:24:33.640Z,104053.63
2023-02-07T18:27:00.111Z,104056.41
2023-02-07T18:29:26.810Z,104051.63
2023-02-07T18:31:53.454Z,104052.97
2023-02-07T18:34:20.068Z,104053.63
2023-02-07T18:36:46.577Z,104053.28
2023-02-07T18:39:13.704Z,104057.00
2023-02-07T18:41:40.265Z,104063.53
2023-02-07T18:44:07.118Z,104058.81
2023-02-07T18:46:33.718Z,104048.47
2023-02-07T18:49:00.552Z,104055.69
2023-02-07T18:51:27.121Z,104050.78
2023-02-07T18:53:56.680Z,104050.34
2023-02-07T18:56:26.212Z,104053.22
2023-02-07T18:58:56.388Z,104058.81
2023-02-07T19:01:25.460Z,104047.34
2023-02-07T19:03:56.339Z,104050.63
2023-02-07T19:06:27.457Z,104047.13
2023-02-07T19:08:54.089Z,104041.44
2023-02-07T19:11:20.721Z,104051.53
2023-02-07T19:13:47.577Z,104045.16
2023-02-07T19:16:17.751Z,104043.88
2023-02-07T19:18:45.410Z,104033.63
2023-02-07T19:21:23.641Z,104045.81
2023-02-07T19:23:50.566Z,104042.75
2023-02-07T19:26:17.066Z,104039.03
2023-02-07T19:28:43.556Z,104044.03
2023-02-07T19:31:17.865Z,104039.63
2023-02-07T19:33:45.257Z,104037.78
2023-02-07T19:36:12.574Z,104036.03
2023-02-07T19:38:39.273Z,104042.06
2023-02-07T19:41:06.657Z,104038.50
2023-02-07T19:43:33.259Z,104027.53
2023-02-07T19:45:59.943Z,104023.16
2023-02-07T19:48:26.924Z,104032.53
2023-02-07T19:51:05.852Z,104038.97
2023-02-07T19:53:33.497Z,104032.63
2023-02-07T19:56:11.312Z,104025.84
2023-02-07T19:58:40.739Z,104022.75
2023-02-07T20:01:08.001Z,104030.63
2023-02-07T20:03:34.552Z,104029.94
2023-02-07T20:06:02.989Z,104028.97
2023-02-07T20:08:33.944Z,104024.09
2023-02-07T20:11:07.772Z,104017.94
2023-02-07T20:13:35.601Z,104018.34
2023-02-07T20:16:11.263Z,104014.34
2023-02-07T20:18:38.188Z,104018.88
2023-02-07T20:21:11.531Z,104021.78
2023-02-07T20:23:39.898Z,104012.94
2023-02-07T20:26:09.022Z,104006.53
2023-02-07T20:28:36.392Z,104015.41
2023-02-07T20:31:07.954Z,104005.13
2023-02-07T20:33:35.789Z,104010.69
2023-02-07T20:36:02.654Z,104012.72
2023-02-07T20:38:29.176Z,104011.88
2023-02-07T20:40:57.472Z,104009.63
2023-02-07T20:43:24.215Z,104019.53
2023-02-07T20:45:50.733Z,104016.88
2023-02-07T20:48:17.244Z,104013.00
2023-02-07T20:50:43.781Z,104017.97
2023-02-07T20:53:10.245Z,104009.06
2023-02-07T20:55:36.997Z,104014.66
2023-02-07T20:58:03.518Z,104012.41
2023-02-07T21:00:30.076Z,104015.28
2023-02-07T21:02:56.585Z,104008.84
2023-02-07T21:05:23.023Z,104011.16
2023-02-07T21:07:49.552Z,104010.75
2023-02-07T21:10:16.176Z,104019.38
2023-02-07T21:12:42.592Z,104004.31
2023-02-07T21:15:09.577Z,104006.56
2023-02-07T21:17:36.769Z,104005.13
2023-02-07T21:20:03.922Z,104007.63
2023-02-07T21:22:30.448Z,104009.88
2023-02-07T21:24:56.917Z,104008.06
2023-02-07T21:27:23.384Z,104006.22
2023-02-07T21:29:49.902Z,104002.91
2023-02-07T21:32:16.454Z,104009.53
2023-02-07T21:34:44.226Z,104007.69
2023-02-07T21:37:10.715Z,104002.97
2023-02-07T21:39:37.390Z,104003.97
2023-02-07T21:42:04.102Z,104007.09
2023-02-07T21:44:30.550Z,103999.66
2023-02-07T21:46:57.253Z,104006.25
2023-02-07T21:49:24.097Z,104000.28
2023-02-07T21:51:53.451Z,104001.13
2023-02-07T21:54:19.934Z,103991.25
2023-02-07T21:56:49.135Z,103991.66
2023-02-07T21:59:18.384Z,103991.44
2023-02-07T22:01:46.381Z,103997.00
2023-02-07T22:04:14.260Z,103997.63
2023-02-07T22:06:43.608Z,103992.09
2023-02-07T22:09:15.033Z,103997.19
2023-02-07T22:11:42.084Z,103996.16
2023-02-07T22:14:10.022Z,103986.91
2023-02-07T22:16:36.741Z,103985.28
2023-02-07T22:19:05.487Z,103994.50
2023-02-07T22:21:34.648Z,103990.19
2023-02-07T22:24:02.820Z,103991.22
2023-02-07T22:26:30.036Z,103996.38
2023-02-07T22:28:57.361Z,103997.41
2023-02-07T22:31:27.761Z,104005.81
2023-02-07T22:33:55.729Z,103993.66
2023-02-07T22:36:28.412Z,103997.38
2023-02-07T22:38:55.272Z,104007.66
2023-02-07T22:41:22.194Z,103997.38
2023-02-07T22:43:49.288Z,103997.59
2023-02-07T22:46:18.146Z,103994.09
2023-02-07T22:48:45.514Z,103994.50
2023-02-07T22:51:23.929Z,103994.72
2023-02-07T22:53:53.979Z,103996.16
2023-02-07T22:56:20.779Z,103989.97
2023-02-07T22:58:47.579Z,103985.03
2023-02-07T23:01:26.323Z,103988.94
2023-02-07T23:03:53.996Z,103984.00
2023-02-07T23:06:21.335Z,103986.03
2023-02-07T23:08:48.233Z,103983.13
2023-02-07T23:11:16.469Z,103996.09
2023-02-07T23:13:43.512Z,103995.28
2023-02-07T23:16:14.799Z,103985.59
2023-02-07T23:18:41.695Z,103986.63
2023-02-07T23:21:10.421Z,103984.38
2023-02-07T23:23:38.034Z,103993.22
2023-02-07T23:26:09.893Z,103989.53
2023-02-07T23:28:37.820Z,103986.22
2023-02-07T23:31:09.630Z,103995.94
2023-02-07T23:33:37.053Z,104001.88
2023-02-07T23:36:04.883Z,104003.91
2023-02-07T23:38:32.336Z,104001.84
2023-02-07T23:40:58.791Z,103999.34
2023-02-07T23:43:25.761Z,104010.03
2023-02-07T23:45:52.744Z,104009.25
2023-02-07T23:48:19.552Z,104000.22
2023-02-07T23:50:53.816Z,104005.94
2023-02-07T23:53:21.247Z,104008.19
2023-02-07T23:55:49.410Z,103997.53
2023-02-07T23:58:16.789Z,103993.84
